createdAt,value
2022-11-27T00:00:48.149Z,18.25
2022-11-27T00:03:14.995Z,18.10
2022-11-27T00:05:50.843Z,15.75
2022-11-27T00:08:17.696Z,17.58
2022-11-27T00:10:44.808Z,16.58
2022-11-27T00:13:11.614Z,16.35
2022-11-27T00:15:38.543Z,16.90
2022-11-27T00:18:05.370Z,16.77
2022-11-27T00:20:32.541Z,17.25
2022-11-27T00:22:59.300Z,17.95
2022-11-27T00:25:26.134Z,17.67
2022-11-27T00:27:52.912Z,15.30
2022-11-27T00:30:19.832Z,16.65
2022-11-27T00:32:46.630Z,14.48
2022-11-27T00:35:13.518Z,14.45
2022-11-27T00:37:40.324Z,16.13
2022-11-27T00:40:07.738Z,15.90
2022-11-27T00:42:34.467Z,15.80
2022-11-27T00:45:01.676Z,16.58
2022-11-27T00:47:28.475Z,16.80
2022-11-27T00:49:55.292Z,17.73
2022-11-27T00:52:22.198Z,17.67
2022-11-27T00:54:48.986Z,17.40
2022-11-27T00:57:15.690Z,16.20
2022-11-27T00:59:42.425Z,17.50
2022-11-27T01:02:09.434Z,15.18
2022-11-27T01:04:36.275Z,15.43
2022-11-27T01:07:03.154Z,15.75
2022-11-27T01:09:29.979Z,16.38
2022-11-27T01:11:56.840Z,15.98
2022-11-27T01:14:23.630Z,17.60
2022-11-27T01:16:50.548Z,17.98
2022-11-27T01:19:17.370Z,19.38
2022-11-27T01:21:44.249Z,19.63
2022-11-27T01:24:13.566Z,18.95
2022-11-27T01:26:40.673Z,16.35
2022-11-27T01:29:07.689Z,14.95
2022-11-27T01:31:35.406Z,13.70
2022-11-27T01:34:05.292Z,13.25
2022-11-27T01:36:33.407Z,12.68
2022-11-27T01:39:01.120Z,11.85
2022-11-27T01:41:37.047Z,12.52
2022-11-27T01:44:25.917Z,12.95
2022-11-27T01:47:15.224Z,12.88
2022-11-27T01:49:50.547Z,13.88
2022-11-27T01:52:22.107Z,12.88
2022-11-27T01:54:56.680Z,14.60
2022-11-27T01:57:31.005Z,13.88
2022-11-27T02:00:00.612Z,13.73
2022-11-27T02:02:27.607Z,13.50
2022-11-27T02:04:58.001Z,13.20
2022-11-27T02:07:25.111Z,11.05
2022-11-27T02:09:51.988Z,10.70
2022-11-27T02:12:56.910Z,9.82
2022-11-27T02:15:31.212Z,8.75
2022-11-27T02:18:10.004Z,8.48
2022-11-27T02:21:04.579Z,8.68
2022-11-27T02:23:49.321Z,7.85
2022-11-27T02:26:37.452Z,7.70
2022-11-27T02:29:10.309Z,7.65
2022-11-27T02:32:01.538Z,6.90
2022-11-27T02:34:39.529Z,7.82
2022-11-27T02:37:15.839Z,8.38
2022-11-27T02:40:09.408Z,8.27
2022-11-27T02:42:40.624Z,7.82
2022-11-27T02:45:14.329Z,9.60
2022-11-27T02:47:43.973Z,8.52
2022-11-27T02:50:15.269Z,7.63
2022-11-27T02:52:43.450Z,10.25
2022-11-27T02:55:16.168Z,9.50
2022-11-27T02:57:45.040Z,7.68
2022-11-27T03:00:12.942Z,6.82
2022-11-27T03:02:46.458Z,6.93
2022-11-27T03:05:19.034Z,6.97
2022-11-27T03:08:47.520Z,6.30
2022-11-27T03:11:15.517Z,7.45
2022-11-27T03:13:47.316Z,6.00
2022-11-27T03:16:42.759Z,6.15
2022-11-27T03:19:26.956Z,6.22
2022-11-27T03:21:57.490Z,6.20
2022-11-27T03:24:25.263Z,6.78
2022-11-27T03:26:52.648Z,6.53
2022-11-27T03:29:24.776Z,7.47
2022-11-27T03:31:52.066Z,7.93
2022-11-27T03:34:19.112Z,6.93
2022-11-27T03:36:46.425Z,7.38
2022-11-27T03:39:13.830Z,7.70
2022-11-27T03:42:00.009Z,7.47
2022-11-27T03:44:53.701Z,8.48
2022-11-27T03:47:39.525Z,7.57
2022-11-27T03:50:34.504Z,8.38
2022-11-27T03:53:33.380Z,8.98
2022-11-27T03:56:20.493Z,8.48
2022-11-27T03:59:10.302Z,9.35
2022-11-27T04:01:37.611Z,8.65
2022-11-27T04:04:04.878Z,9.07
2022-11-27T04:06:31.689Z,8.32
2022-11-27T04:08:58.578Z,8.70
2022-11-27T04:11:25.599Z,9.27
2022-11-27T04:13:52.458Z,8.90
2022-11-27T04:16:19.939Z,9.57
2022-11-27T04:18:46.784Z,9.07
2022-11-27T04:21:13.579Z,9.30
2022-11-27T04:23:40.846Z,9.98
2022-11-27T04:26:07.672Z,9.73
2022-11-27T04:28:34.609Z,10.07
2022-11-27T04:31:01.633Z,10.65
2022-11-27T04:33:28.484Z,10.48
2022-11-27T04:35:55.377Z,9.95
2022-11-27T04:38:23.685Z,9.48
2022-11-27T04:40:53.477Z,11.68
2022-11-27T04:43:20.421Z,14.40
2022-11-27T04:45:47.337Z,20.40
2022-11-27T04:48:14.175Z,13.55
2022-11-27T04:50:40.959Z,12.20
2022-11-27T04:53:07.783Z,11.38
2022-11-27T04:55:35.364Z,11.30
2022-11-27T04:58:02.214Z,11.55
2022-11-27T05:00:29.073Z,12.65
2022-11-27T05:02:56.104Z,13.10
2022-11-27T05:05:23.018Z,13.98
2022-11-27T05:07:49.957Z,14.48
2022-11-27T05:10:16.927Z,14.18
2022-11-27T05:12:43.931Z,14.13
2022-11-27T05:15:10.876Z,15.32
2022-11-27T05:17:37.704Z,14.18
2022-11-27T05:20:04.990Z,16.17
2022-11-27T05:22:32.196Z,14.15
2022-11-27T05:24:59.022Z,14.70
2022-11-27T05:27:25.925Z,15.07
2022-11-27T05:29:52.962Z,14.48
2022-11-27T05:32:19.858Z,14.63
2022-11-27T05:34:48.646Z,14.40
2022-11-27T05:37:19.508Z,13.02
2022-11-27T05:39:47.008Z,12.23
2022-11-27T05:42:14.067Z,13.10
2022-11-27T05:44:41.022Z,12.32
2022-11-27T05:47:08.135Z,13.93
2022-11-27T05:49:35.423Z,11.93
2022-11-27T05:52:02.358Z,10.15
2022-11-27T05:54:29.167Z,11.10
2022-11-27T05:56:55.948Z,10.18
2022-11-27T05:59:22.735Z,10.82
2022-11-27T06:01:50.144Z,11.10
2022-11-27T06:04:17.587Z,10.57
2022-11-27T06:06:44.726Z,10.48
2022-11-27T06:09:13.506Z,10.48
2022-11-27T06:11:41.002Z,11.27
2022-11-27T06:14:09.419Z,11.40
2022-11-27T06:16:37.391Z,12.10
2022-11-27T06:19:04.427Z,13.52
2022-11-27T06:21:31.329Z,13.30
2022-11-27T06:23:58.095Z,12.90
2022-11-27T06:26:28.594Z,11.75
2022-11-27T06:28:56.907Z,11.70
2022-11-27T06:31:26.574Z,13.73
2022-11-27T06:33:54.897Z,12.32
2022-11-27T06:36:28.294Z,12.27
2022-11-27T06:38:55.278Z,11.90
2022-11-27T06:41:24.650Z,11.63
2022-11-27T06:43:51.781Z,12.50
2022-11-27T06:46:20.682Z,11.93
2022-11-27T06:48:49.078Z,12.13
2022-11-27T06:51:27.567Z,12.15
2022-11-27T06:53:54.718Z,11.50
2022-11-27T06:56:24.712Z,11.45
2022-11-27T06:58:53.666Z,11.40
2022-11-27T07:01:21.332Z,10.77
2022-11-27T07:03:48.439Z,11.93
2022-11-27T07:06:18.464Z,12.75
2022-11-27T07:08:45.530Z,13.18
2022-11-27T07:11:14.836Z,12.95
2022-11-27T07:13:42.050Z,11.70
2022-11-27T07:16:10.937Z,11.43
2022-11-27T07:18:41.367Z,12.85
2022-11-27T07:21:10.263Z,13.18
2022-11-27T07:23:38.254Z,12.75
2022-11-27T07:26:06.861Z,12.52
2022-11-27T07:28:33.711Z,13.10
2022-11-27T07:31:00.670Z,20.05
2022-11-27T07:33:27.956Z,17.85
2022-11-27T07:36:03.764Z,12.63
2022-11-27T07:38:30.804Z,12.02
2022-11-27T07:41:01.838Z,11.20
2022-11-27T07:43:29.594Z,10.38
2022-11-27T07:45:57.199Z,11.65
2022-11-27T07:48:24.436Z,10.80
2022-11-27T07:50:51.412Z,10.65
2022-11-27T07:53:18.973Z,9.85
2022-11-27T07:55:46.068Z,9.20
2022-11-27T07:58:12.899Z,8.23
2022-11-27T08:00:39.835Z,9.80
2022-11-27T08:03:07.125Z,9.10
2022-11-27T08:05:35.620Z,8.15
2022-11-27T08:08:04.393Z,8.57
2022-11-27T08:10:34.714Z,8.63
2022-11-27T08:13:01.560Z,9.07
2022-11-27T08:15:28.374Z,8.98
2022-11-27T08:17:55.221Z,9.27
2022-11-27T08:20:22.304Z,8.63
2022-11-27T08:22:49.461Z,8.40
2022-11-27T08:25:16.814Z,7.95
2022-11-27T08:27:44.162Z,9.57
2022-11-27T08:30:11.238Z,9.93
2022-11-27T08:32:42.841Z,7.35
2022-11-27T08:35:11.591Z,7.22
2022-11-27T08:37:38.657Z,7.45
2022-11-27T08:40:06.197Z,7.05
2022-11-27T08:42:33.054Z,7.60
2022-11-27T08:44:59.909Z,7.70
2022-11-27T08:47:26.668Z,8.10
2022-11-27T08:49:53.614Z,7.63
2022-11-27T08:52:21.270Z,7.43
2022-11-27T08:54:50.900Z,6.57
2022-11-27T08:57:21.760Z,7.65
2022-11-27T08:59:48.764Z,7.28
2022-11-27T09:02:15.548Z,7.03
2022-11-27T09:04:42.646Z,6.80
2022-11-27T09:07:12.429Z,6.75
2022-11-27T09:09:39.450Z,6.57
2022-11-27T09:12:06.501Z,6.68
2022-11-27T09:14:33.272Z,6.32
2022-11-27T09:17:00.168Z,5.90
2022-11-27T09:19:27.259Z,5.50
2022-11-27T09:21:54.147Z,6.50
2022-11-27T09:24:20.979Z,6.65
2022-11-27T09:26:47.901Z,6.50
2022-11-27T09:29:14.739Z,6.20
2022-11-27T09:31:41.607Z,6.68
2022-11-27T09:34:08.504Z,5.93
2022-11-27T09:36:35.593Z,6.70
2022-11-27T09:39:03.644Z,7.85
2022-11-27T09:41:51.165Z,7.63
2022-11-27T09:44:20.902Z,9.38
2022-11-27T09:46:49.434Z,9.38
2022-11-27T09:49:41.536Z,9.55
2022-11-27T09:52:39.940Z,10.10
2022-11-27T09:55:23.970Z,10.15
2022-11-27T09:58:01.576Z,12.85
2022-11-27T10:00:28.654Z,8.95
2022-11-27T10:02:55.654Z,8.85
2022-11-27T10:05:25.821Z,10.13
2022-11-27T10:08:14.145Z,10.95
2022-11-27T10:10:52.905Z,8.80
2022-11-27T10:13:39.048Z,8.18
2022-11-27T10:16:23.944Z,7.85
2022-11-27T10:19:03.286Z,7.07
2022-11-27T10:21:45.709Z,7.82
2022-11-27T10:24:12.430Z,8.18
2022-11-27T10:26:47.979Z,6.82
2022-11-27T10:29:14.826Z,7.95
2022-11-27T10:32:53.498Z,6.88
2022-11-27T10:35:21.847Z,8.20
2022-11-27T10:38:22.386Z,8.40
2022-11-27T10:40:57.804Z,8.50
2022-11-27T10:43:26.464Z,8.23
2022-11-27T10:45:56.138Z,9.02
2022-11-27T10:48:24.030Z,8.43
2022-11-27T10:50:51.416Z,8.38
2022-11-27T10:53:29.539Z,9.27
2022-11-27T10:56:02.274Z,8.65
2022-11-27T10:58:34.260Z,8.52
2022-11-27T11:01:16.864Z,10.50
2022-11-27T11:03:43.842Z,10.13
2022-11-27T11:06:24.402Z,10.68
2022-11-27T11:09:25.614Z,9.80
2022-11-27T11:11:52.710Z,10.38
2022-11-27T11:14:22.859Z,10.40
2022-11-27T11:16:50.978Z,11.35
2022-11-27T11:19:32.937Z,10.38
2022-11-27T11:22:04.336Z,11.10
2022-11-27T11:24:33.430Z,11.07
2022-11-27T11:27:05.941Z,10.02
2022-11-27T11:29:35.254Z,10.05
2022-11-27T11:32:07.851Z,11.00
2022-11-27T11:34:35.146Z,10.18
2022-11-27T11:37:08.742Z,10.90
2022-11-27T11:39:49.153Z,10.63
2022-11-27T11:42:25.993Z,10.25
2022-11-27T11:45:07.321Z,10.93
2022-11-27T11:47:34.415Z,9.80
2022-11-27T11:50:01.591Z,11.32
2022-11-27T11:52:37.459Z,10.90
2022-11-27T11:55:12.355Z,10.70
2022-11-27T11:58:26.352Z,12.63
2022-11-27T12:01:26.042Z,10.48
2022-11-27T12:03:57.654Z,12.25
2022-11-27T12:06:51.411Z,11.52
2022-11-27T12:09:35.790Z,16.73
2022-11-27T12:12:39.937Z,14.02
2022-11-27T12:15:27.969Z,14.15
2022-11-27T12:18:05.331Z,12.98
2022-11-27T12:20:48.989Z,11.93
2022-11-27T12:23:30.816Z,10.40
2022-11-27T12:26:24.524Z,10.93
2022-11-27T12:29:15.323Z,11.20
2022-11-27T12:31:52.430Z,11.32
2022-11-27T12:34:58.074Z,11.40
2022-11-27T12:37:52.388Z,12.38
2022-11-27T12:40:44.113Z,12.75
2022-11-27T12:43:27.727Z,13.63
2022-11-27T12:46:12.299Z,12.65
2022-11-27T12:48:53.729Z,12.73
2022-11-27T12:51:37.519Z,13.00
2022-11-27T12:54:14.274Z,12.18
2022-11-27T12:56:45.960Z,13.23
2022-11-27T12:59:35.057Z,14.10
2022-11-27T13:02:11.076Z,13.30
2022-11-27T13:04:54.125Z,12.73
2022-11-27T13:07:38.874Z,13.00
2022-11-27T13:10:20.457Z,12.65
2022-11-27T13:13:16.439Z,12.48
2022-11-27T13:15:54.790Z,13.00
2022-11-27T13:18:38.598Z,13.48
2022-11-27T13:21:12.988Z,13.70
2022-11-27T13:23:39.840Z,12.32
2022-11-27T13:26:15.226Z,13.40
2022-11-27T13:28:44.000Z,12.85
2022-11-27T13:31:22.851Z,13.93
2022-11-27T13:33:52.221Z,13.88
2022-11-27T13:36:36.027Z,13.48
2022-11-27T13:39:03.686Z,14.25
2022-11-27T13:41:40.894Z,13.10
2022-11-27T13:44:26.172Z,14.27
2022-11-27T13:46:56.298Z,13.85
2022-11-27T13:49:36.180Z,13.27
2022-11-27T13:52:16.497Z,14.13
2022-11-27T13:54:58.120Z,15.35
2022-11-27T13:57:26.452Z,16.05
2022-11-27T14:00:12.828Z,15.75
2022-11-27T14:02:45.524Z,16.13
2022-11-27T14:05:15.126Z,14.65
2022-11-27T14:07:45.543Z,15.98
2022-11-27T14:10:28.682Z,15.55
2022-11-27T14:13:04.921Z,14.13
2022-11-27T14:15:35.433Z,15.43
2022-11-27T14:18:08.554Z,17.33
2022-11-27T14:20:45.001Z,14.95
2022-11-27T14:23:13.614Z,15.02
2022-11-27T14:25:41.314Z,15.48
2022-11-27T14:28:22.044Z,17.05
2022-11-27T14:30:55.305Z,17.70
2022-11-27T14:33:59.769Z,17.17
2022-11-27T14:36:26.368Z,17.55
2022-11-27T14:38:53.912Z,15.57
2022-11-27T14:41:23.959Z,15.60
2022-11-27T14:44:04.469Z,15.82
2022-11-27T14:46:33.714Z,15.52
2022-11-27T14:49:00.728Z,14.85
2022-11-27T14:51:32.813Z,16.40
2022-11-27T14:54:11.202Z,18.13
2022-11-27T14:56:41.716Z,17.08
2022-11-27T14:59:20.747Z,16.40
2022-11-27T15:01:59.006Z,17.27
2022-11-27T15:04:29.351Z,16.83
2022-11-27T15:06:58.225Z,16.77
2022-11-27T15:09:43.394Z,17.88
2022-11-27T15:12:46.976Z,17.80
2022-11-27T15:15:28.492Z,16.58
2022-11-27T15:18:05.630Z,16.27
2022-11-27T15:20:42.353Z,16.25
2022-11-27T15:23:24.483Z,17.13
2022-11-27T15:26:16.871Z,17.23
2022-11-27T15:28:57.244Z,15.95
2022-11-27T15:31:32.918Z,18.50
2022-11-27T15:34:05.974Z,17.67
2022-11-27T15:36:39.352Z,20.35
2022-11-27T15:39:38.288Z,20.77
2022-11-27T15:42:09.664Z,22.65
2022-11-27T15:44:36.759Z,21.42
2022-11-27T15:47:05.330Z,17.40
2022-11-27T15:49:32.781Z,17.50
2022-11-27T15:51:59.737Z,17.83
2022-11-27T15:54:26.757Z,17.10
2022-11-27T15:56:54.040Z,17.23
2022-11-27T15:59:21.219Z,18.63
2022-11-27T16:01:49.890Z,20.63
2022-11-27T16:04:17.116Z,18.77
2022-11-27T16:06:44.112Z,22.00
2022-11-27T16:09:10.885Z,20.10
2022-11-27T16:11:38.137Z,20.83
2022-11-27T16:14:05.126Z,19.65
2022-11-27T16:16:32.407Z,17.55
2022-11-27T16:19:00.829Z,19.33
2022-11-27T16:21:29.894Z,19.90
2022-11-27T16:24:02.216Z,20.88
2022-11-27T16:26:29.552Z,17.83
2022-11-27T16:28:56.497Z,21.00
2022-11-27T16:31:23.612Z,21.85
2022-11-27T16:33:50.786Z,19.50
2022-11-27T16:36:21.408Z,21.85
2022-11-27T16:38:49.090Z,20.38
2022-11-27T16:41:19.156Z,19.65
2022-11-27T16:43:49.839Z,18.75
2022-11-27T16:46:20.225Z,18.88
2022-11-27T16:48:49.606Z,18.17
2022-11-27T16:51:20.432Z,19.63
2022-11-27T16:53:50.339Z,17.77
2022-11-27T16:56:23.835Z,18.45
2022-11-27T16:58:56.734Z,18.30
2022-11-27T17:01:32.360Z,19.80
2022-11-27T17:03:59.672Z,19.10
2022-11-27T17:06:29.058Z,19.52
2022-11-27T17:08:57.672Z,20.13
2022-11-27T17:11:26.825Z,20.80
2022-11-27T17:13:57.523Z,19.83
2022-11-27T17:16:24.904Z,18.75
2022-11-27T17:18:52.941Z,19.55
2022-11-27T17:21:31.991Z,17.70
2022-11-27T17:24:01.744Z,17.90
2022-11-27T17:26:35.205Z,19.27
2022-11-27T17:29:03.465Z,19.05
2022-11-27T17:31:37.032Z,18.02
2022-11-27T17:34:06.501Z,16.55
2022-11-27T17:36:37.124Z,17.40
2022-11-27T17:39:06.470Z,16.77
2022-11-27T17:41:33.851Z,17.63
2022-11-27T17:44:02.807Z,16.25
2022-11-27T17:46:30.448Z,16.33
2022-11-27T17:49:01.499Z,15.77
2022-11-27T17:51:31.302Z,15.35
2022-11-27T17:54:01.365Z,16.95
2022-11-27T17:56:32.285Z,16.70
2022-11-27T17:58:59.945Z,17.13
2022-11-27T18:01:29.237Z,17.13
2022-11-27T18:03:59.853Z,17.63
2022-11-27T18:06:29.220Z,17.05
2022-11-27T18:08:58.144Z,19.17
2022-11-27T18:11:28.206Z,16.88
2022-11-27T18:13:58.213Z,18.40
2022-11-27T18:16:31.650Z,17.20
2022-11-27T18:18:59.679Z,17.65
2022-11-27T18:21:28.482Z,18.48
2022-11-27T18:29:30.363Z,17.58
2022-11-27T18:31:57.225Z,16.67
2022-11-27T18:34:24.068Z,16.80
2022-11-27T18:36:50.884Z,18.45
2022-11-27T18:39:17.744Z,17.10
2022-11-27T18:41:44.606Z,17.95
2022-11-27T18:44:11.957Z,17.55
2022-11-27T18:46:39.842Z,17.27
2022-11-27T18:49:07.728Z,17.33
2022-11-27T18:51:34.721Z,17.15
2022-11-27T18:54:02.192Z,17.83
2022-11-27T18:56:31.360Z,19.80
2022-11-27T18:59:04.687Z,19.27
2022-11-27T19:01:41.282Z,16.17
2022-11-27T19:04:09.380Z,15.30
2022-11-27T19:06:37.588Z,15.52
2022-11-27T19:09:06.340Z,14.45
2022-11-27T19:11:34.822Z,15.43
2022-11-27T19:14:04.419Z,15.55
2022-11-27T19:16:44.165Z,16.30
2022-11-27T19:19:52.236Z,14.63
2022-11-27T19:22:00.955Z,13.85
2022-11-27T19:24:27.801Z,17.33
2022-11-27T19:26:55.126Z,18.52
2022-11-27T19:29:22.848Z,16.15
2022-11-27T19:31:50.043Z,16.73
2022-11-27T19:34:16.921Z,15.75
2022-11-27T19:36:44.675Z,16.17
2022-11-27T19:39:14.377Z,16.05
2022-11-27T19:41:43.222Z,12.98
2022-11-27T19:44:12.295Z,13.18
2022-11-27T19:46:40.333Z,13.95
2022-11-27T19:49:14.669Z,13.10
2022-11-27T19:51:41.977Z,12.45
2022-11-27T19:54:13.107Z,13.63
2022-11-27T19:56:42.414Z,14.07
2022-11-27T19:59:10.497Z,14.13
2022-11-27T20:01:40.263Z,13.07
2022-11-27T20:04:09.737Z,13.32
2022-11-27T20:06:36.689Z,12.85
2022-11-27T20:09:05.208Z,11.93
2022-11-27T20:11:35.191Z,12.25
2022-11-27T20:14:05.130Z,12.88
2022-11-27T20:16:34.003Z,13.00
2022-11-27T20:19:02.394Z,11.75
2022-11-27T20:21:29.278Z,12.88
2022-11-27T20:23:57.608Z,11.40
2022-11-27T20:26:27.230Z,11.15
2022-11-27T20:28:54.977Z,11.13
2022-11-27T20:31:24.934Z,11.43
2022-11-27T20:33:55.346Z,10.30
2022-11-27T20:36:23.699Z,10.55
2022-11-27T20:38:52.328Z,10.38
2022-11-27T20:41:20.766Z,10.60
2022-11-27T20:43:53.193Z,9.32
2022-11-27T20:46:20.261Z,9.38
2022-11-27T20:48:49.127Z,9.52
2022-11-27T20:51:19.351Z,9.82
2022-11-27T20:53:47.981Z,9.73
2022-11-27T20:56:17.811Z,9.35
2022-11-27T20:58:46.365Z,9.65
2022-11-27T21:01:21.543Z,9.52
2022-11-27T21:03:50.230Z,10.02
2022-11-27T21:06:23.933Z,9.50
2022-11-27T21:08:51.108Z,9.73
2022-11-27T21:11:27.049Z,10.48
2022-11-27T21:13:56.522Z,9.27
2022-11-27T21:16:25.463Z,9.48
2022-11-27T21:18:53.830Z,9.52
2022-11-27T21:21:21.393Z,9.23
2022-11-27T21:23:49.099Z,10.25
2022-11-27T21:26:18.546Z,9.70
2022-11-27T21:28:46.663Z,9.98
2022-11-27T21:31:19.297Z,9.77
2022-11-27T21:34:06.120Z,9.40
2022-11-27T21:36:36.024Z,10.32
2022-11-27T21:39:08.120Z,10.02
2022-11-27T21:41:36.003Z,9.70
2022-11-27T21:44:05.497Z,10.02
2022-11-27T21:46:33.618Z,9.65
2022-11-27T21:49:04.318Z,9.13
2022-11-27T21:51:31.189Z,9.93
2022-11-27T21:53:59.075Z,10.50
2022-11-27T21:56:29.046Z,9.70
2022-11-27T21:58:56.302Z,10.38
2022-11-27T22:01:25.110Z,10.10
2022-11-27T22:03:56.591Z,10.30
2022-11-27T22:06:26.931Z,9.45
2022-11-27T22:08:56.705Z,10.07
2022-11-27T22:11:30.764Z,9.40
2022-11-27T22:14:07.041Z,9.82
2022-11-27T22:16:42.799Z,9.45
2022-11-27T22:19:11.492Z,9.23
2022-11-27T22:21:38.495Z,9.27
2022-11-27T22:24:05.469Z,8.07
2022-11-27T22:26:32.559Z,8.02
2022-11-27T22:28:59.653Z,8.35
2022-11-27T22:31:33.852Z,8.73
2022-11-27T22:34:00.856Z,8.40
2022-11-27T22:36:31.226Z,8.68
2022-11-27T22:39:00.870Z,7.93
2022-11-27T22:41:29.929Z,8.05
2022-11-27T22:44:00.232Z,9.35
2022-11-27T22:46:32.597Z,7.72
2022-11-27T22:49:01.007Z,8.90
2022-11-27T22:51:29.930Z,7.82
2022-11-27T22:53:58.000Z,8.65
2022-11-27T22:56:25.899Z,9.02
2022-11-27T22:59:11.313Z,9.32
2022-11-27T23:01:40.893Z,7.75
2022-11-27T23:04:07.854Z,8.40
2022-11-27T23:06:34.745Z,9.93
2022-11-27T23:09:01.714Z,9.25
2022-11-27T23:11:29.068Z,9.05
2022-11-27T23:13:57.673Z,8.27
2022-11-27T23:16:25.160Z,7.82
2022-11-27T23:18:51.989Z,8.23
2022-11-27T23:21:22.194Z,8.85
2022-11-27T23:23:49.413Z,7.90
2022-11-27T23:26:18.820Z,8.25
2022-11-27T23:28:47.731Z,9.05
2022-11-27T23:31:33.178Z,8.82
2022-11-27T23:34:01.892Z,8.55
2022-11-27T23:36:30.549Z,8.20
2022-11-27T23:39:00.656Z,8.55
2022-11-27T23:41:27.810Z,8.88
2022-11-27T23:43:55.172Z,8.63
2022-11-27T23:46:26.349Z,8.60
2022-11-27T23:48:58.394Z,9.00
2022-11-27T23:51:29.354Z,8.43
2022-11-27T23:53:56.584Z,9.05
2022-11-27T23:56:25.887Z,8.68
2022-11-27T23:58:55.185Z,9.75
